createdAt,value
2018-07-05T00:02:28.865Z,20.70
2018-07-05T00:05:09.033Z,20.60
2018-07-05T00:07:49.124Z,20.50
2018-07-05T00:10:29.183Z,20.40
2018-07-05T00:13:09.596Z,20.40
2018-07-05T00:15:49.783Z,20.40
2018-07-05T00:18:29.927Z,20.30
2018-07-05T00:21:10.108Z,20.30
2018-07-05T00:23:50.625Z,20.20
2018-07-05T00:26:30.711Z,20.10
2018-07-05T00:29:10.911Z,20.20
2018-07-05T00:31:51.133Z,20.10
2018-07-05T00:34:31.277Z,20.10
2018-07-05T00:39:45.638Z,19.90
2018-07-05T00:42:25.833Z,20.00
2018-07-05T00:45:06.007Z,20.00
2018-07-05T00:47:46.176Z,19.80
2018-07-05T00:50:26.367Z,19.50
2018-07-05T00:55:40.977Z,19.30
2018-07-05T00:58:21.178Z,19.20
2018-07-05T01:01:01.285Z,19.40
2018-07-05T01:03:41.448Z,19.50
2018-07-05T01:06:21.696Z,19.60
2018-07-05T01:09:02.078Z,19.70
2018-07-05T01:11:42.750Z,19.80
2018-07-05T01:14:23.196Z,19.90
2018-07-05T01:17:03.427Z,20.00
2018-07-05T01:19:43.644Z,20.00
2018-07-05T01:22:24.508Z,20.00
2018-07-05T01:25:05.032Z,19.80
2018-07-05T01:27:45.248Z,19.70
2018-07-05T01:32:59.912Z,19.40
2018-07-05T01:35:40.145Z,19.40
2018-07-05T01:38:20.354Z,19.40
2018-07-05T01:41:00.406Z,19.40
2018-07-05T01:43:40.734Z,19.40
2018-07-05T01:46:20.926Z,19.40
2018-07-05T01:49:01.132Z,19.20
2018-07-05T01:51:41.260Z,19.20
2018-07-05T01:54:21.402Z,19.10
2018-07-05T01:57:01.499Z,19.00
2018-07-05T01:59:41.589Z,19.10
2018-07-05T02:04:55.936Z,19.00
2018-07-05T02:07:36.730Z,18.90
2018-07-05T02:10:16.994Z,18.90
2018-07-05T02:12:57.196Z,18.80
2018-07-05T02:15:37.473Z,18.60
2018-07-05T02:18:17.612Z,18.50
2018-07-05T02:20:57.750Z,18.30
2018-07-05T02:23:38.013Z,18.20
2018-07-05T02:26:18.469Z,18.00
2018-07-05T02:28:58.599Z,17.90
2018-07-05T02:31:38.757Z,17.90
2018-07-05T02:34:18.983Z,17.90
2018-07-05T02:36:59.189Z,18.00
2018-07-05T02:39:44.729Z,17.90
2018-07-05T02:42:25.107Z,17.90
2018-07-05T02:45:05.315Z,17.90
2018-07-05T02:47:45.752Z,17.90
2018-07-05T02:50:25.889Z,17.90
2018-07-05T02:53:06.209Z,18.00
2018-07-05T02:55:46.447Z,18.10
2018-07-05T02:58:26.878Z,18.30
2018-07-05T03:01:07.797Z,18.30
2018-07-05T03:03:48.086Z,18.40
2018-07-05T03:06:28.235Z,18.50
2018-07-05T03:09:08.402Z,18.50
2018-07-05T03:11:49.232Z,18.50
2018-07-05T03:14:29.403Z,18.60
2018-07-05T03:17:09.846Z,18.50
2018-07-05T03:22:25.157Z,18.50
2018-07-05T03:25:05.464Z,18.60
2018-07-05T03:27:46.204Z,18.50
2018-07-05T03:30:26.303Z,18.50
2018-07-05T03:33:06.572Z,18.50
2018-07-05T03:35:46.742Z,18.40
2018-07-05T03:38:26.960Z,18.40
2018-07-05T03:41:07.375Z,18.40
2018-07-05T03:43:47.442Z,18.30
2018-07-05T03:46:27.799Z,18.30
2018-07-05T03:49:07.991Z,18.30
2018-07-05T03:51:48.159Z,18.30
2018-07-05T03:54:28.300Z,18.30
2018-07-05T03:57:08.606Z,18.40
2018-07-05T03:59:49.092Z,18.40
2018-07-05T04:02:29.253Z,18.30
2018-07-05T04:05:09.607Z,18.30
2018-07-05T04:07:49.780Z,18.30
2018-07-05T04:10:29.978Z,18.20
2018-07-05T04:15:44.298Z,18.20
2018-07-05T04:20:58.383Z,18.20
2018-07-05T04:23:38.661Z,18.20
2018-07-05T04:26:19.011Z,18.30
2018-07-05T04:29:00.025Z,18.30
2018-07-05T04:31:40.535Z,18.20
2018-07-05T04:34:20.811Z,18.20
2018-07-05T04:37:00.957Z,18.20
2018-07-05T04:42:15.535Z,18.10
2018-07-05T04:47:29.729Z,18.20
2018-07-05T04:50:09.966Z,18.20
2018-07-05T04:52:49.987Z,18.30
2018-07-05T04:55:30.417Z,18.40
2018-07-05T04:58:10.573Z,18.50
2018-07-05T05:00:51.447Z,18.50
2018-07-05T05:03:31.617Z,18.60
2018-07-05T05:06:11.789Z,18.60
2018-07-05T05:08:52.107Z,18.50
2018-07-05T05:11:32.414Z,18.60
2018-07-05T05:16:46.799Z,18.80
2018-07-05T05:19:27.039Z,18.80
2018-07-05T05:22:08.054Z,18.90
2018-07-05T05:24:48.253Z,18.90
2018-07-05T05:27:28.377Z,18.90
2018-07-05T05:30:09.246Z,18.90
2018-07-05T05:32:49.395Z,18.90
2018-07-05T05:35:30.010Z,18.90
2018-07-05T05:38:10.409Z,18.90
2018-07-05T05:40:50.541Z,19.00
2018-07-05T05:46:04.823Z,18.80
2018-07-05T05:48:45.060Z,18.60
2018-07-05T05:51:25.363Z,18.70
2018-07-05T05:54:05.967Z,18.80
2018-07-05T05:56:46.249Z,18.80
2018-07-05T05:59:26.489Z,18.80
2018-07-05T06:02:06.815Z,19.00
2018-07-05T06:04:47.159Z,18.90
2018-07-05T06:07:27.949Z,18.90
2018-07-05T06:10:08.018Z,18.90
2018-07-05T06:12:48.264Z,18.80
2018-07-05T06:15:28.857Z,18.80
2018-07-05T06:18:09.016Z,18.90
2018-07-05T06:20:49.285Z,18.80
2018-07-05T06:23:29.824Z,18.80
2018-07-05T06:26:10.054Z,19.00
2018-07-05T06:28:50.140Z,19.00
2018-07-05T06:31:31.368Z,19.20
2018-07-05T06:34:11.477Z,19.20
2018-07-05T06:36:51.735Z,19.30
2018-07-05T06:39:32.005Z,19.30
2018-07-05T06:42:12.554Z,19.40
2018-07-05T06:44:52.627Z,19.40
2018-07-05T06:47:32.883Z,19.20
2018-07-05T06:50:12.978Z,18.90
2018-07-05T06:52:53.109Z,18.90
2018-07-05T06:55:35.220Z,19.10
2018-07-05T06:58:15.552Z,19.10
2018-07-05T07:00:55.979Z,18.90
2018-07-05T07:03:36.245Z,19.00
2018-07-05T07:06:16.286Z,18.90
2018-07-05T07:08:56.531Z,18.60
2018-07-05T07:11:36.761Z,18.60
2018-07-05T07:14:16.977Z,18.50
2018-07-05T07:16:57.158Z,18.50
2018-07-05T07:19:37.431Z,18.40
2018-07-05T07:22:17.760Z,18.50
2018-07-05T07:24:57.904Z,18.50
2018-07-05T07:27:38.068Z,18.30
2018-07-05T07:30:18.514Z,18.30
2018-07-05T07:35:33.106Z,18.30
2018-07-05T07:38:13.668Z,18.20
2018-07-05T07:40:54.232Z,18.20
2018-07-05T07:43:22.206Z,18.30
2018-07-05T07:45:50.204Z,18.40
2018-07-05T07:48:18.040Z,18.40
2018-07-05T07:50:45.980Z,18.50
2018-07-05T07:53:13.901Z,18.50
2018-07-05T07:55:42.790Z,18.40
2018-07-05T07:58:10.757Z,18.50
2018-07-05T08:00:38.642Z,18.60
2018-07-05T08:03:06.766Z,18.60
2018-07-05T08:05:34.696Z,18.70
2018-07-05T08:08:03.705Z,18.80
2018-07-05T08:10:32.372Z,18.80
2018-07-05T08:13:00.292Z,18.90
2018-07-05T08:15:28.420Z,18.90
2018-07-05T08:17:56.379Z,19.00
2018-07-05T08:20:24.401Z,18.80
2018-07-05T08:22:52.240Z,18.70
2018-07-05T08:25:20.386Z,18.70
2018-07-05T08:27:48.310Z,18.80
2018-07-05T08:30:16.226Z,18.70
2018-07-05T08:32:44.196Z,18.80
2018-07-05T08:35:13.038Z,18.70
2018-07-05T08:37:40.950Z,18.80
2018-07-05T08:40:08.950Z,18.80
2018-07-05T08:42:36.916Z,18.90
2018-07-05T08:45:04.810Z,18.90
2018-07-05T08:47:32.708Z,19.00
2018-07-05T08:50:00.644Z,19.10
2018-07-05T08:52:28.533Z,19.20
2018-07-05T08:54:56.432Z,19.40
2018-07-05T08:57:24.372Z,19.50
2018-07-05T08:59:52.257Z,19.50
2018-07-05T09:02:20.280Z,19.60
2018-07-05T09:04:48.278Z,19.70
2018-07-05T09:07:16.181Z,19.80
2018-07-05T09:09:44.118Z,19.70
2018-07-05T09:12:12.196Z,19.80
2018-07-05T09:14:40.314Z,19.90
2018-07-05T09:17:08.638Z,19.90
2018-07-05T09:19:36.542Z,19.80
2018-07-05T09:22:04.666Z,19.60
2018-07-05T09:24:32.560Z,19.60
2018-07-05T09:27:01.368Z,19.70
2018-07-05T09:29:29.278Z,19.70
2018-07-05T09:31:57.165Z,19.80
2018-07-05T09:34:25.058Z,19.80
2018-07-05T09:39:22.465Z,19.90
2018-07-05T09:41:50.672Z,19.90
2018-07-05T09:44:18.568Z,20.00
2018-07-05T09:46:46.602Z,20.00
2018-07-05T09:49:14.536Z,20.00
2018-07-05T09:51:42.434Z,20.00
2018-07-05T09:54:10.377Z,20.20
2018-07-05T09:56:38.293Z,20.40
2018-07-05T09:59:06.226Z,20.50
2018-07-05T10:01:34.124Z,20.60
2018-07-05T10:04:02.023Z,20.60
2018-07-05T10:06:29.925Z,20.90
2018-07-05T10:08:57.890Z,21.20
2018-07-05T10:11:25.810Z,21.20
2018-07-05T10:13:53.756Z,21.50
2018-07-05T10:16:21.614Z,21.70
2018-07-05T10:18:49.520Z,21.50
2018-07-05T12:03:28.656Z,22.50
2018-07-05T12:06:08.944Z,22.50
2018-07-05T12:08:49.367Z,22.20
2018-07-05T12:11:29.581Z,22.20
2018-07-05T12:14:09.993Z,22.10
2018-07-05T12:16:50.208Z,22.50
2018-07-05T12:19:30.627Z,22.30
2018-07-05T12:22:10.887Z,22.40
2018-07-05T12:24:51.244Z,21.90
2018-07-05T12:27:31.543Z,21.60
2018-07-05T12:30:11.639Z,21.50
2018-07-05T12:35:25.861Z,21.00
2018-07-05T12:38:06.214Z,21.20
2018-07-05T12:40:46.255Z,21.10
2018-07-05T12:43:26.502Z,20.90
2018-07-05T12:46:06.665Z,20.70
2018-07-05T12:48:46.840Z,20.50
2018-07-05T12:51:27.024Z,20.00
2018-07-05T12:54:07.162Z,20.30
2018-07-05T12:56:47.282Z,20.50
2018-07-05T12:59:27.463Z,20.90
2018-07-05T13:02:07.678Z,21.30
2018-07-05T13:04:48.011Z,21.80
2018-07-05T13:07:28.326Z,22.20
2018-07-05T13:10:08.465Z,22.30
2018-07-05T13:12:48.759Z,22.60
2018-07-05T13:15:28.939Z,23.00
2018-07-05T13:18:09.197Z,22.80
2018-07-05T13:20:49.303Z,22.80
2018-07-05T13:23:29.543Z,22.50
2018-07-05T13:26:09.604Z,21.80
2018-07-05T13:28:49.849Z,21.70
2018-07-05T13:31:30.209Z,21.80
2018-07-05T13:34:10.341Z,21.30
2018-07-05T13:36:51.065Z,21.50
2018-07-05T13:39:31.370Z,21.30
2018-07-05T13:42:11.631Z,21.70
2018-07-05T13:44:51.864Z,22.50
2018-07-05T13:50:06.319Z,23.40
2018-07-05T13:52:46.559Z,23.60
2018-07-05T13:55:26.825Z,23.50
2018-07-05T13:58:06.963Z,23.20
2018-07-05T14:00:47.049Z,22.90
2018-07-05T14:03:27.115Z,23.30
2018-07-05T14:06:07.267Z,23.80
2018-07-05T14:08:47.646Z,23.80
2018-07-05T14:11:27.909Z,23.70
2018-07-05T14:14:08.235Z,23.50
2018-07-05T14:16:48.375Z,23.10
2018-07-05T14:19:28.562Z,22.60
2018-07-05T14:22:08.607Z,22.30
2018-07-05T14:27:22.907Z,22.20
2018-07-05T14:30:03.081Z,22.40
2018-07-05T14:32:43.219Z,22.20
2018-07-05T14:35:23.432Z,22.30
2018-07-05T14:38:03.649Z,22.30
2018-07-05T14:40:43.782Z,22.10
2018-07-05T14:43:23.931Z,22.20
2018-07-05T14:46:04.108Z,22.40
2018-07-05T14:48:44.271Z,22.40
2018-07-05T14:51:24.465Z,22.20
2018-07-05T14:54:04.512Z,22.30
2018-07-05T14:56:44.654Z,22.30
2018-07-05T14:59:24.771Z,22.20
2018-07-05T15:02:04.906Z,22.20
2018-07-05T15:04:45.060Z,22.20
2018-07-05T15:07:25.263Z,22.20
2018-07-05T15:10:05.507Z,22.30
2018-07-05T15:12:46.039Z,22.10
2018-07-05T15:15:26.206Z,22.40
2018-07-05T15:18:06.404Z,22.50
2018-07-05T15:20:46.564Z,22.40
2018-07-05T15:23:26.825Z,22.50
2018-07-05T15:26:06.998Z,22.50
2018-07-05T15:28:47.185Z,22.70
2018-07-05T15:31:27.387Z,22.90
2018-07-05T15:34:07.639Z,23.10
2018-07-05T15:36:47.825Z,23.30
2018-07-05T15:39:28.114Z,23.60
2018-07-05T15:42:08.383Z,23.60
2018-07-05T15:44:48.626Z,23.70
2018-07-05T15:47:28.889Z,23.90
2018-07-05T15:50:09.042Z,23.80
2018-07-05T15:52:49.083Z,23.50
2018-07-05T15:55:29.484Z,23.10
2018-07-05T15:58:09.698Z,22.80
2018-07-05T16:00:49.754Z,22.70
2018-07-05T16:03:30.146Z,22.90
2018-07-05T16:06:10.319Z,22.90
2018-07-05T16:11:24.754Z,22.80
2018-07-05T16:14:05.041Z,22.80
2018-07-05T16:16:45.225Z,22.60
2018-07-05T16:19:25.466Z,22.60
2018-07-05T16:22:05.670Z,22.50
2018-07-05T16:24:45.894Z,22.50
2018-07-05T16:27:26.136Z,22.50
2018-07-05T16:32:40.456Z,22.40
2018-07-05T16:35:20.590Z,22.40
2018-07-05T16:38:00.918Z,22.40
2018-07-05T16:40:41.084Z,22.40
2018-07-05T16:43:21.212Z,22.30
2018-07-05T16:48:35.446Z,22.10
2018-07-05T16:51:15.510Z,22.00
2018-07-05T16:53:55.667Z,21.90
2018-07-05T16:56:35.807Z,21.80
2018-07-05T16:59:15.946Z,21.70
2018-07-05T17:01:55.992Z,21.70
2018-07-05T17:04:36.302Z,21.70
2018-07-05T17:07:16.507Z,21.50
2018-07-05T17:09:56.974Z,21.30
2018-07-05T17:15:11.333Z,20.80
2018-07-05T17:17:51.462Z,20.70
2018-07-05T17:23:05.933Z,20.10
2018-07-05T17:25:46.061Z,19.90
2018-07-05T17:28:26.275Z,19.70
2018-07-05T17:31:06.387Z,19.50
2018-07-05T17:33:46.585Z,19.30
2018-07-05T17:36:26.909Z,18.50
2018-07-05T17:39:07.010Z,17.20
2018-07-05T17:41:47.211Z,16.60
2018-07-05T17:44:27.351Z,16.50
2018-07-05T17:47:07.451Z,16.40
2018-07-05T17:49:47.554Z,16.50
2018-07-05T17:52:27.963Z,16.60
2018-07-05T17:55:08.157Z,16.60
2018-07-05T17:57:48.323Z,16.60
2018-07-05T18:00:28.338Z,16.60
2018-07-05T18:03:08.532Z,16.70
2018-07-05T18:05:48.622Z,16.70
2018-07-05T18:08:29.489Z,16.80
2018-07-05T18:11:10.195Z,16.90
2018-07-05T18:13:50.485Z,16.90
2018-07-05T18:16:30.545Z,16.90
2018-07-05T18:19:10.744Z,17.10
2018-07-05T18:21:50.913Z,17.00
2018-07-05T18:24:31.039Z,17.10
2018-07-05T18:27:11.258Z,17.20
2018-07-05T18:29:51.556Z,17.20
2018-07-05T18:32:31.805Z,17.20
2018-07-05T18:35:12.014Z,17.30
2018-07-05T18:37:52.250Z,17.30
2018-07-05T18:40:32.450Z,17.30
2018-07-05T18:45:46.814Z,17.30
2018-07-05T18:48:26.954Z,17.30
2018-07-05T18:51:07.182Z,17.30
2018-07-05T18:53:47.352Z,17.30
2018-07-05T18:56:27.541Z,17.20
2018-07-05T19:01:41.694Z,17.30
2018-07-05T19:04:21.882Z,17.30
2018-07-05T19:07:02.154Z,17.30
2018-07-05T19:09:42.329Z,17.30
2018-07-05T19:12:22.782Z,17.30
2018-07-05T19:15:02.962Z,17.30
2018-07-05T19:17:43.186Z,17.30
2018-07-05T19:20:23.527Z,17.30
2018-07-05T19:23:03.650Z,17.20
2018-07-05T19:25:43.849Z,17.20
2018-07-05T19:28:24.081Z,17.20
2018-07-05T19:31:04.148Z,17.20
2018-07-05T19:33:44.332Z,17.20
2018-07-05T19:36:24.420Z,17.20
2018-07-05T19:39:05.421Z,17.20
2018-07-05T19:41:45.724Z,17.10
2018-07-05T19:44:25.890Z,17.20
2018-07-05T19:47:06.062Z,17.20
2018-07-05T19:49:46.360Z,17.20
2018-07-05T19:52:26.480Z,17.20
2018-07-05T19:57:41.738Z,17.10
2018-07-05T20:00:21.918Z,17.20
2018-07-05T20:03:02.118Z,17.10
2018-07-05T20:05:42.282Z,17.10
2018-07-05T20:08:22.664Z,17.00
2018-07-05T20:13:40.598Z,17.00
2018-07-05T20:16:21.394Z,17.00
2018-07-05T20:19:01.681Z,16.90
2018-07-05T20:21:41.784Z,16.90
2018-07-05T20:24:22.070Z,16.90
2018-07-05T20:27:02.229Z,16.80
2018-07-05T20:32:16.650Z,16.80
2018-07-05T20:34:57.067Z,16.80
2018-07-05T20:37:37.244Z,16.80
2018-07-05T20:40:17.356Z,16.80
2018-07-05T20:42:57.539Z,16.80
2018-07-05T20:45:37.868Z,16.80
2018-07-05T20:48:18.002Z,16.80
2018-07-05T20:50:58.180Z,16.80
2018-07-05T20:53:38.424Z,16.80
2018-07-05T20:56:18.676Z,16.70
2018-07-05T20:59:00.290Z,16.70
2018-07-05T21:01:40.487Z,16.70
2018-07-05T21:04:20.656Z,16.70
2018-07-05T21:07:00.902Z,16.70
2018-07-05T21:09:41.072Z,16.70
2018-07-05T21:12:21.292Z,16.60
2018-07-05T21:17:35.958Z,16.60
2018-07-05T21:20:16.133Z,16.60
2018-07-05T21:22:56.676Z,16.60
2018-07-05T21:25:36.876Z,16.60
2018-07-05T21:28:17.015Z,16.60
2018-07-05T21:30:57.207Z,16.60
2018-07-05T21:33:37.286Z,16.60
2018-07-05T21:36:17.470Z,16.60
2018-07-05T21:38:57.685Z,16.60
2018-07-05T21:41:38.438Z,16.60
2018-07-05T21:44:18.740Z,16.60
2018-07-05T21:46:58.848Z,16.70
2018-07-05T21:49:39.540Z,16.60
2018-07-05T21:54:53.668Z,16.70
2018-07-05T21:57:33.830Z,16.70
2018-07-05T22:00:14.075Z,16.60
2018-07-05T22:02:54.272Z,16.60
2018-07-05T22:08:08.621Z,16.70
2018-07-05T22:10:48.910Z,16.60
2018-07-05T22:13:29.132Z,16.70
2018-07-05T22:16:09.772Z,16.70
2018-07-05T22:20:57.990Z,16.60
2018-07-05T22:23:43.496Z,16.70
2018-07-05T22:26:29.014Z,16.60
2018-07-05T22:29:14.463Z,16.60
2018-07-05T22:31:58.865Z,16.60
2018-07-05T22:37:13.106Z,16.60
2018-07-05T22:39:53.349Z,16.70
2018-07-05T22:42:33.460Z,16.60
2018-07-05T22:45:13.830Z,16.60
2018-07-05T22:47:54.118Z,16.70
2018-07-05T22:50:34.838Z,16.70
2018-07-05T22:53:15.242Z,16.70
2018-07-05T22:55:55.353Z,16.70
2018-07-05T22:58:35.694Z,16.70
2018-07-05T23:01:16.206Z,16.70
2018-07-05T23:03:56.938Z,16.80
2018-07-05T23:06:37.042Z,16.80
2018-07-05T23:09:17.248Z,16.80
2018-07-05T23:11:57.368Z,16.90
2018-07-05T23:14:37.558Z,16.80
2018-07-05T23:19:52.025Z,16.90
2018-07-05T23:22:32.185Z,16.90
2018-07-05T23:25:12.422Z,16.80
2018-07-05T23:27:52.660Z,16.70
2018-07-05T23:30:33.536Z,16.60
2018-07-05T23:33:13.718Z,16.70
2018-07-05T23:35:54.011Z,16.70
2018-07-05T23:38:34.254Z,16.80
2018-07-05T23:41:14.544Z,16.80
2018-07-05T23:46:29.276Z,16.80
2018-07-05T23:49:09.382Z,16.80
2018-07-05T23:51:49.538Z,16.80
2018-07-05T23:54:29.682Z,16.80
2018-07-05T23:57:09.836Z,16.80
2018-07-05T23:59:49.990Z,16.80
